createdAt,value
2018-07-27T00:02:18.233Z,99.90
2018-07-27T00:04:51.365Z,99.90
2018-07-27T00:07:24.550Z,99.90
2018-07-27T00:09:57.582Z,99.90
2018-07-27T00:12:30.960Z,99.90
2018-07-27T00:15:04.113Z,99.90
2018-07-27T00:17:37.239Z,99.90
2018-07-27T00:20:10.547Z,99.90
2018-07-27T00:22:43.707Z,99.90
2018-07-27T00:25:16.765Z,99.90
2018-07-27T00:27:49.812Z,99.90
2018-07-27T00:30:22.816Z,99.90
2018-07-27T00:32:56.814Z,99.90
2018-07-27T00:35:31.690Z,99.90
2018-07-27T00:38:11.912Z,99.90
2018-07-27T00:40:59.936Z,99.90
2018-07-27T00:43:43.324Z,99.90
2018-07-27T00:46:33.536Z,99.90
2018-07-27T00:49:15.957Z,99.90
2018-07-27T00:52:14.101Z,99.90
2018-07-27T00:54:59.434Z,99.90
2018-07-27T00:57:42.447Z,99.90
2018-07-27T01:00:26.179Z,99.90
2018-07-27T01:05:59.198Z,99.90
2018-07-27T01:08:47.157Z,99.90
2018-07-27T01:11:51.223Z,99.90
2018-07-27T01:14:37.419Z,99.90
2018-07-27T01:17:18.303Z,99.90
2018-07-27T01:20:10.416Z,99.90
2018-07-27T01:22:59.460Z,99.90
2018-07-27T01:25:48.750Z,99.90
2018-07-27T01:28:35.044Z,99.90
2018-07-27T01:31:29.192Z,99.90
2018-07-27T01:34:23.776Z,99.90
2018-07-27T01:37:17.078Z,99.90
2018-07-27T01:40:03.165Z,99.90
2018-07-27T01:42:54.318Z,99.90
2018-07-27T01:45:35.698Z,99.90
2018-07-27T01:48:09.607Z,99.90
2018-07-27T01:50:44.525Z,99.90
2018-07-27T01:53:18.408Z,99.90
2018-07-27T01:55:53.938Z,99.90
2018-07-27T01:58:28.620Z,99.90
2018-07-27T02:01:01.722Z,99.90
2018-07-27T02:03:34.953Z,99.90
2018-07-27T02:06:08.249Z,98.70
2018-07-27T02:08:41.481Z,98.60
2018-07-27T02:11:15.196Z,99.90
2018-07-27T02:13:48.176Z,99.80
2018-07-27T02:16:21.227Z,99.50
2018-07-27T02:18:54.384Z,99.40
2018-07-27T02:21:27.556Z,98.80
2018-07-27T02:24:00.574Z,98.40
2018-07-27T02:26:33.619Z,97.80
2018-07-27T02:29:06.787Z,98.20
2018-07-27T02:31:39.809Z,98.30
2018-07-27T02:34:12.847Z,97.40
2018-07-27T02:36:45.997Z,97.20
2018-07-27T02:39:19.107Z,97.40
2018-07-27T02:41:52.823Z,96.70
2018-07-27T02:44:25.942Z,96.20
2018-07-27T02:46:59.026Z,96.70
2018-07-27T02:49:32.117Z,96.80
2018-07-27T02:52:05.399Z,96.70
2018-07-27T02:54:38.527Z,96.30
2018-07-27T02:57:11.489Z,96.00
2018-07-27T02:59:44.535Z,94.60
2018-07-27T03:02:18.752Z,94.40
2018-07-27T03:04:51.861Z,93.90
2018-07-27T03:07:24.871Z,93.90
2018-07-27T03:09:58.831Z,93.40
2018-07-27T03:12:31.933Z,92.50
2018-07-27T03:15:05.047Z,91.70
2018-07-27T03:17:38.123Z,91.80
2018-07-27T03:20:11.183Z,91.90
2018-07-27T03:22:44.396Z,91.10
2018-07-27T03:25:17.394Z,90.10
2018-07-27T03:27:50.484Z,90.10
2018-07-27T03:30:23.541Z,89.60
2018-07-27T03:32:56.898Z,89.00
2018-07-27T03:35:30.912Z,89.10
2018-07-27T03:38:04.122Z,88.40
2018-07-27T03:40:37.180Z,88.00
2018-07-27T03:43:10.204Z,88.20
2018-07-27T03:45:43.295Z,86.70
2018-07-27T03:48:16.262Z,85.00
2018-07-27T03:50:49.402Z,83.60
2018-07-27T03:53:24.112Z,81.60
2018-07-27T03:55:57.278Z,82.90
2018-07-27T03:58:30.368Z,82.50
2018-07-27T04:01:03.566Z,82.80
2018-07-27T04:03:36.716Z,83.00
2018-07-27T04:06:10.032Z,84.60
2018-07-27T04:08:43.259Z,82.60
2018-07-27T04:11:16.454Z,80.30
2018-07-27T04:13:49.547Z,80.20
2018-07-27T04:16:22.629Z,79.40
2018-07-27T04:18:55.714Z,78.50
2018-07-27T04:21:28.999Z,77.70
2018-07-27T04:24:02.017Z,78.60
2018-07-27T04:26:35.007Z,78.10
2018-07-27T04:29:08.207Z,79.00
2018-07-27T04:31:41.389Z,80.50
2018-07-27T04:34:15.365Z,82.80
2018-07-27T04:36:48.416Z,81.90
2018-07-27T04:39:21.467Z,83.50
2018-07-27T04:41:54.435Z,84.20
2018-07-27T04:44:27.574Z,84.30
2018-07-27T04:47:00.771Z,84.10
2018-07-27T04:52:05.613Z,85.30
2018-07-27T04:54:38.640Z,86.00
2018-07-27T04:57:11.701Z,87.00
2018-07-27T04:59:44.850Z,88.40
2018-07-27T05:02:18.104Z,89.00
2018-07-27T05:04:51.209Z,90.40
2018-07-27T05:07:24.291Z,91.30
2018-07-27T05:09:57.394Z,91.70
2018-07-27T05:12:30.481Z,91.70
2018-07-27T05:15:03.461Z,92.90
2018-07-27T05:17:36.538Z,93.80
2018-07-27T05:20:10.098Z,94.80
2018-07-27T05:22:43.171Z,95.30
2018-07-27T05:25:16.170Z,96.80
2018-07-27T05:27:49.266Z,97.80
2018-07-27T05:30:22.329Z,98.10
2018-07-27T05:32:55.506Z,98.80
2018-07-27T05:35:29.022Z,98.60
2018-07-27T05:38:02.207Z,99.10
2018-07-27T05:40:35.340Z,98.70
2018-07-27T05:43:08.442Z,98.30
2018-07-27T05:45:41.477Z,97.80
2018-07-27T05:48:14.900Z,96.50
2018-07-27T05:50:48.023Z,96.80
2018-07-27T05:53:21.026Z,97.00
2018-07-27T05:55:54.037Z,97.30
2018-07-27T05:58:27.238Z,96.70
2018-07-27T06:01:00.319Z,96.70
2018-07-27T06:03:33.926Z,96.40
2018-07-27T06:06:06.917Z,96.30
2018-07-27T06:08:40.031Z,96.40
2018-07-27T06:11:13.167Z,96.20
2018-07-27T06:13:46.235Z,93.20
2018-07-27T06:16:19.379Z,93.30
2018-07-27T06:18:52.558Z,92.30
2018-07-27T06:21:25.676Z,91.70
2018-07-27T06:23:58.787Z,91.90
2018-07-27T06:26:31.992Z,91.50
2018-07-27T06:29:05.221Z,90.80
2018-07-27T06:31:38.321Z,90.70
2018-07-27T06:34:11.315Z,90.60
2018-07-27T06:36:44.416Z,90.50
2018-07-27T06:39:17.507Z,90.50
2018-07-27T06:41:50.748Z,90.50
2018-07-27T06:44:23.801Z,90.20
2018-07-27T06:46:56.881Z,90.40
2018-07-27T06:49:29.994Z,90.50
2018-07-27T06:52:03.327Z,90.20
2018-07-27T06:54:36.462Z,90.40
2018-07-27T06:57:09.664Z,90.10
2018-07-27T06:59:42.798Z,89.40
2018-07-27T07:02:15.971Z,88.10
2018-07-27T07:04:49.121Z,88.40
2018-07-27T07:07:22.148Z,88.20
2018-07-27T07:09:55.290Z,86.70
2018-07-27T07:12:28.436Z,87.10
2018-07-27T07:15:01.484Z,85.90
2018-07-27T07:17:34.839Z,85.60
2018-07-27T07:20:08.620Z,84.00
2018-07-27T07:22:41.778Z,83.00
2018-07-27T07:25:15.253Z,84.20
2018-07-27T07:27:48.453Z,82.80
2018-07-27T07:30:21.398Z,81.50
2018-07-27T07:32:54.442Z,80.80
2018-07-27T07:35:27.551Z,82.00
2018-07-27T07:38:00.657Z,82.50
2018-07-27T07:40:33.796Z,83.70
2018-07-27T07:43:07.275Z,83.80
2018-07-27T07:45:40.375Z,82.90
2018-07-27T07:50:45.973Z,83.80
2018-07-27T07:53:19.824Z,84.70
2018-07-27T07:58:24.541Z,86.00
2018-07-27T08:00:58.031Z,86.00
2018-07-27T08:03:31.132Z,87.60
2018-07-27T08:06:05.291Z,88.50
2018-07-27T08:08:38.547Z,90.40
2018-07-27T08:11:11.667Z,90.20
2018-07-27T08:13:44.792Z,90.80
2018-07-27T08:16:18.092Z,91.50
2018-07-27T08:18:51.107Z,92.00
2018-07-27T08:21:29.016Z,91.90
2018-07-27T08:24:02.168Z,92.00
2018-07-27T08:26:42.242Z,92.30
2018-07-27T08:29:19.685Z,92.10
2018-07-27T08:31:53.615Z,92.60
2018-07-27T08:34:26.783Z,92.50
2018-07-27T08:37:00.028Z,92.80
2018-07-27T08:39:34.475Z,93.40
2018-07-27T08:42:07.726Z,94.10
2018-07-27T08:44:42.214Z,94.50
2018-07-27T08:47:15.694Z,94.70
2018-07-27T08:49:48.833Z,94.50
2018-07-27T08:52:21.860Z,95.40
2018-07-27T08:54:55.026Z,95.60
2018-07-27T08:57:28.165Z,96.00
2018-07-27T09:00:01.298Z,96.00
2018-07-27T09:02:34.376Z,96.00
2018-07-27T09:05:07.974Z,96.00
2018-07-27T09:07:40.968Z,95.40
2018-07-27T09:10:14.934Z,95.60
2018-07-27T09:12:48.071Z,94.70
2018-07-27T09:15:21.110Z,94.50
2018-07-27T09:17:54.163Z,94.10
2018-07-27T09:20:27.330Z,94.10
2018-07-27T09:23:00.507Z,94.40
2018-07-27T09:25:33.727Z,95.60
2018-07-27T09:28:06.879Z,96.20
2018-07-27T09:30:39.946Z,96.10
2018-07-27T09:33:13.522Z,96.80
2018-07-27T09:35:46.875Z,97.50
2018-07-27T09:38:20.371Z,98.20
2018-07-27T09:40:53.548Z,97.60
2018-07-27T09:43:26.638Z,97.60
2018-07-27T09:45:59.667Z,97.70
2018-07-27T09:48:32.630Z,97.80
2018-07-27T09:51:05.804Z,98.10
2018-07-27T09:53:38.883Z,98.00
2018-07-27T09:56:12.264Z,97.60
2018-07-27T09:58:45.478Z,97.50
2018-07-27T10:01:26.550Z,98.20
2018-07-27T10:04:01.671Z,98.40
2018-07-27T10:06:34.734Z,98.50
2018-07-27T10:09:09.557Z,98.50
2018-07-27T10:11:43.635Z,98.60
2018-07-27T10:14:16.593Z,98.20
2018-07-27T10:17:00.309Z,98.10
2018-07-27T10:19:33.534Z,97.90
2018-07-27T10:22:06.563Z,97.30
2018-07-27T10:24:39.573Z,97.10
2018-07-27T10:27:12.631Z,96.00
2018-07-27T10:29:45.734Z,95.50
2018-07-27T10:32:18.764Z,95.30
2018-07-27T10:34:51.974Z,95.00
2018-07-27T10:37:25.752Z,95.10
2018-07-27T10:40:00.225Z,94.90
2018-07-27T10:42:33.339Z,94.60
2018-07-27T10:45:06.661Z,94.60
2018-07-27T10:47:39.826Z,94.70
2018-07-27T10:50:12.964Z,94.70
2018-07-27T10:52:46.005Z,94.60
2018-07-27T10:55:19.239Z,94.60
2018-07-27T10:57:52.284Z,94.60
2018-07-27T11:00:26.241Z,94.50
2018-07-27T11:02:59.401Z,94.60
2018-07-27T11:05:32.442Z,94.90
2018-07-27T11:08:05.577Z,94.90
2018-07-27T11:10:38.647Z,94.70
2018-07-27T11:13:11.819Z,94.70
2018-07-27T11:15:44.854Z,94.70
2018-07-27T11:18:19.101Z,95.20
2018-07-27T11:20:52.118Z,96.20
2018-07-27T11:23:25.224Z,96.50
2018-07-27T11:25:58.467Z,96.70
2018-07-27T11:28:31.805Z,97.20
2018-07-27T11:31:05.052Z,97.50
2018-07-27T11:33:38.258Z,97.30
2018-07-27T11:36:11.347Z,97.40
2018-07-27T11:38:44.524Z,97.90
2018-07-27T11:41:17.567Z,98.30
2018-07-27T11:43:50.633Z,98.20
2018-07-27T11:46:23.727Z,98.20
2018-07-27T11:48:56.970Z,98.20
2018-07-27T11:51:30.181Z,98.40
2018-07-27T11:54:03.343Z,98.40
2018-07-27T11:56:36.482Z,98.60
2018-07-27T11:59:09.711Z,99.20
2018-07-27T12:01:42.808Z,99.00
2018-07-27T12:04:16.267Z,99.10
2018-07-27T12:06:49.394Z,99.10
2018-07-27T12:09:22.496Z,99.20
2018-07-27T12:11:55.633Z,99.40
2018-07-27T12:14:28.918Z,99.40
2018-07-27T12:17:01.968Z,99.50
2018-07-27T12:19:35.405Z,99.40
2018-07-27T12:22:09.070Z,99.30
2018-07-27T12:24:43.077Z,99.70
2018-07-27T12:27:16.387Z,99.90
2018-07-27T12:29:49.389Z,99.90
2018-07-27T12:32:22.650Z,99.90
2018-07-27T12:34:56.181Z,99.90
2018-07-27T12:37:29.409Z,99.90
2018-07-27T12:40:02.533Z,99.90
2018-07-27T12:42:36.414Z,99.90
2018-07-27T12:45:10.096Z,99.90
2018-07-27T12:47:43.177Z,99.90
2018-07-27T12:50:17.181Z,99.90
2018-07-27T12:52:51.154Z,99.90
2018-07-27T12:55:24.300Z,99.90
2018-07-27T12:57:57.453Z,99.90
2018-07-27T13:00:30.559Z,99.90
2018-07-27T13:03:03.638Z,99.90
2018-07-27T13:05:37.650Z,99.90
2018-07-27T13:08:10.665Z,99.90
2018-07-27T13:10:43.731Z,99.90
2018-07-27T13:13:16.829Z,99.90
2018-07-27T13:15:50.207Z,99.90
2018-07-27T13:18:23.285Z,99.90
2018-07-27T13:20:57.781Z,99.90
2018-07-27T13:26:25.329Z,99.90
2018-07-27T13:28:44.281Z,99.90
2018-07-27T13:31:17.287Z,99.90
2018-07-27T13:35:00.301Z,99.90
2018-07-27T13:37:34.863Z,99.90
2018-07-27T13:40:08.670Z,99.90
2018-07-27T13:42:46.604Z,99.90
2018-07-27T13:45:22.048Z,99.90
2018-07-27T13:47:55.150Z,99.90
2018-07-27T13:50:28.471Z,99.90
2018-07-27T13:53:01.704Z,99.90
2018-07-27T13:55:34.890Z,99.90
2018-07-27T13:58:08.121Z,99.90
2018-07-27T14:00:41.381Z,99.90
2018-07-27T14:03:15.175Z,99.90
2018-07-27T14:05:48.360Z,99.90
2018-07-27T14:08:22.411Z,99.90
2018-07-27T14:10:55.676Z,99.90
2018-07-27T14:13:28.897Z,99.90
2018-07-27T14:16:02.278Z,99.90
2018-07-27T14:18:35.414Z,99.90
2018-07-27T14:21:08.666Z,99.90
2018-07-27T14:23:41.989Z,99.90
2018-07-27T14:26:15.157Z,99.90
2018-07-27T14:28:48.399Z,99.90
2018-07-27T14:31:21.551Z,99.90
2018-07-27T14:33:55.344Z,99.90
2018-07-27T14:36:28.591Z,99.90
2018-07-27T14:39:01.879Z,99.90
2018-07-27T14:41:35.275Z,99.90
2018-07-27T14:44:08.642Z,99.90
2018-07-27T14:46:42.032Z,99.90
2018-07-27T14:49:16.608Z,99.90
2018-07-27T14:54:21.530Z,99.90
2018-07-27T14:56:54.635Z,99.90
2018-07-27T14:59:27.876Z,99.90
2018-07-27T15:02:01.458Z,99.90
2018-07-27T15:04:34.668Z,99.90
2018-07-27T15:07:07.913Z,99.90
2018-07-27T15:12:12.958Z,99.90
2018-07-27T15:14:46.786Z,99.90
2018-07-27T15:17:20.107Z,99.90
2018-07-27T15:19:53.463Z,99.90
2018-07-27T15:24:58.339Z,99.90
2018-07-27T15:27:31.659Z,99.90
2018-07-27T15:30:04.776Z,99.90
2018-07-27T15:32:38.022Z,99.90
2018-07-27T15:35:11.445Z,99.90
2018-07-27T15:37:44.588Z,99.90
2018-07-27T15:40:18.176Z,99.90
2018-07-27T15:42:51.456Z,99.90
2018-07-27T15:45:24.600Z,99.90
2018-07-27T15:47:57.982Z,99.90
2018-07-27T15:50:31.072Z,99.90
2018-07-27T15:53:07.318Z,99.90
2018-07-27T15:55:40.488Z,99.90
2018-07-27T15:58:13.696Z,99.90
2018-07-27T16:00:47.661Z,99.90
2018-07-27T16:03:22.057Z,99.90
2018-07-27T16:05:59.095Z,99.90
2018-07-27T16:08:34.731Z,99.90
2018-07-27T16:11:12.396Z,99.90
2018-07-27T16:13:47.500Z,99.90
2018-07-27T16:16:20.887Z,99.90
2018-07-27T16:19:01.229Z,99.90
2018-07-27T16:21:34.396Z,99.90
2018-07-27T16:24:09.823Z,99.90
2018-07-27T16:26:43.037Z,99.90
2018-07-27T16:29:18.420Z,99.90
2018-07-27T16:31:52.516Z,99.90
2018-07-27T16:34:26.118Z,99.90
2018-07-27T16:36:59.403Z,99.90
2018-07-27T16:42:04.165Z,99.90
2018-07-27T16:44:37.474Z,99.90
2018-07-27T16:47:10.789Z,99.90
2018-07-27T16:49:43.969Z,99.90
2018-07-27T16:52:17.298Z,99.90
2018-07-27T16:54:51.655Z,99.90
2018-07-27T16:59:56.586Z,99.90
2018-07-27T17:02:29.849Z,99.90
2018-07-27T17:05:03.030Z,99.90
2018-07-27T17:07:36.274Z,99.90
2018-07-27T17:10:09.880Z,99.90
2018-07-27T17:12:43.029Z,99.90
2018-07-27T17:15:16.338Z,99.90
2018-07-27T17:17:49.631Z,99.90
2018-07-27T17:20:22.823Z,99.90
2018-07-27T17:22:56.064Z,99.90
2018-07-27T17:25:29.579Z,99.90
2018-07-27T17:28:02.692Z,99.90
2018-07-27T17:30:36.028Z,99.90
2018-07-27T17:33:09.422Z,99.90
2018-07-27T17:35:42.478Z,99.90
2018-07-27T17:38:15.862Z,99.90
2018-07-27T17:40:49.310Z,99.90
2018-07-27T17:43:22.663Z,99.90
2018-07-27T17:45:55.990Z,99.90
2018-07-27T17:48:29.283Z,99.90
2018-07-27T17:51:02.378Z,99.90
2018-07-27T17:53:35.483Z,99.90
2018-07-27T17:56:08.889Z,99.90
2018-07-27T17:58:41.950Z,99.90
2018-07-27T18:01:15.166Z,99.90
2018-07-27T18:03:48.283Z,99.90
2018-07-27T18:06:21.506Z,99.90
2018-07-27T18:08:54.725Z,99.90
2018-07-27T18:11:27.790Z,99.90
2018-07-27T18:14:00.896Z,99.90
2018-07-27T18:16:34.045Z,99.90
2018-07-27T18:19:07.616Z,99.90
2018-07-27T18:21:41.008Z,99.90
2018-07-27T18:24:14.770Z,99.90
2018-07-27T18:26:47.853Z,99.90
2018-07-27T18:29:20.950Z,99.90
2018-07-27T18:31:54.026Z,99.90
2018-07-27T18:34:27.157Z,99.90
2018-07-27T18:37:00.325Z,99.90
2018-07-27T18:39:33.532Z,99.90
2018-07-27T18:44:38.718Z,99.90
2018-07-27T18:47:11.991Z,99.90
2018-07-27T18:49:45.226Z,99.90
2018-07-27T18:52:18.664Z,99.90
2018-07-27T18:54:51.805Z,99.90
2018-07-27T18:57:25.424Z,99.90
2018-07-27T19:00:04.484Z,99.90
2018-07-27T19:02:37.610Z,99.90
2018-07-27T19:05:11.083Z,99.90
2018-07-27T19:07:44.414Z,99.90
2018-07-27T19:10:17.653Z,99.90
2018-07-27T19:12:50.968Z,99.90
2018-07-27T19:15:24.200Z,99.90
2018-07-27T19:17:57.396Z,99.90
2018-07-27T19:20:30.532Z,99.90
2018-07-27T19:23:03.900Z,99.90
2018-07-27T19:25:37.037Z,99.90
2018-07-27T19:28:10.700Z,99.90
2018-07-27T19:30:43.854Z,99.90
2018-07-27T19:33:17.091Z,99.90
2018-07-27T19:35:50.167Z,99.90
2018-07-27T19:38:23.388Z,99.90
2018-07-27T19:40:56.775Z,99.90
2018-07-27T19:43:29.853Z,99.90
2018-07-27T19:46:03.075Z,99.90
2018-07-27T19:48:36.239Z,99.90
2018-07-27T19:51:09.900Z,99.90
2018-07-27T19:53:43.237Z,99.90
2018-07-27T19:56:16.458Z,99.90
2018-07-27T19:58:49.598Z,99.90
2018-07-27T20:01:22.789Z,99.90
2018-07-27T20:03:56.157Z,99.90
2018-07-27T20:06:29.335Z,99.90
2018-07-27T20:09:02.449Z,99.90
2018-07-27T20:11:35.684Z,99.90
2018-07-27T20:14:08.884Z,99.90
2018-07-27T20:16:42.257Z,99.90
2018-07-27T20:19:15.457Z,99.90
2018-07-27T20:21:48.683Z,99.90
2018-07-27T20:24:22.904Z,99.90
2018-07-27T20:26:55.958Z,99.90
2018-07-27T20:29:29.287Z,99.90
2018-07-27T20:32:02.370Z,99.90
2018-07-27T20:34:35.448Z,99.90
2018-07-27T20:37:09.101Z,99.90
2018-07-27T20:39:42.542Z,99.90
2018-07-27T20:42:15.683Z,99.90
2018-07-27T20:44:48.810Z,99.90
2018-07-27T20:47:23.134Z,99.90
2018-07-27T20:49:56.377Z,99.90
2018-07-27T20:52:29.465Z,99.90
2018-07-27T20:55:02.821Z,99.90
2018-07-27T20:57:35.874Z,99.90
2018-07-27T21:00:13.518Z,99.90
2018-07-27T21:02:47.570Z,99.90
2018-07-27T21:05:20.814Z,99.90
2018-07-27T21:07:54.000Z,99.90
2018-07-27T21:10:27.166Z,99.90
2018-07-27T21:13:00.140Z,99.90
2018-07-27T21:15:33.284Z,99.90
2018-07-27T21:18:06.434Z,99.90
2018-07-27T21:20:39.674Z,99.90
2018-07-27T21:23:13.103Z,99.90
2018-07-27T21:25:46.312Z,99.90
2018-07-27T21:28:19.558Z,99.90
2018-07-27T21:30:52.645Z,99.90
2018-07-27T21:33:25.923Z,99.90
2018-07-27T21:35:59.161Z,99.90
2018-07-27T21:38:32.390Z,99.90
2018-07-27T21:41:05.656Z,99.90
2018-07-27T21:43:39.007Z,99.90
2018-07-27T21:46:12.030Z,99.90
2018-07-27T21:48:45.854Z,99.90
2018-07-27T21:51:19.057Z,99.90
2018-07-27T21:53:52.243Z,99.90
2018-07-27T21:56:25.469Z,99.90
2018-07-27T21:58:58.767Z,99.90
2018-07-27T22:01:32.039Z,99.90
2018-07-27T22:04:05.181Z,99.90
2018-07-27T22:06:38.171Z,99.90
2018-07-27T22:09:12.870Z,99.90
2018-07-27T22:11:45.994Z,99.90
2018-07-27T22:14:18.970Z,99.90
2018-07-27T22:16:52.040Z,99.90
2018-07-27T22:19:25.300Z,99.90
2018-07-27T22:21:58.672Z,99.90
2018-07-27T22:24:31.878Z,99.90
2018-07-27T22:27:05.075Z,99.90
2018-07-27T22:29:38.356Z,99.90
2018-07-27T22:32:11.696Z,99.90
2018-07-27T22:34:44.943Z,99.90
2018-07-27T22:37:18.299Z,99.90
2018-07-27T22:39:51.465Z,99.90
2018-07-27T22:42:24.637Z,99.90
2018-07-27T22:44:57.752Z,99.90
2018-07-27T22:47:31.858Z,99.90
2018-07-27T22:50:05.182Z,99.90
2018-07-27T22:52:41.147Z,99.90
2018-07-27T22:55:15.644Z,99.90
2018-07-27T22:57:48.769Z,99.90
2018-07-27T23:00:21.952Z,99.90
2018-07-27T23:02:55.141Z,99.90
2018-07-27T23:05:28.458Z,99.90
2018-07-27T23:08:01.641Z,99.90
2018-07-27T23:10:34.834Z,99.90
2018-07-27T23:13:08.387Z,99.90
2018-07-27T23:15:41.636Z,99.90
2018-07-27T23:18:15.101Z,99.90
2018-07-27T23:20:48.401Z,99.90
2018-07-27T23:23:21.565Z,99.90
2018-07-27T23:25:54.891Z,99.90
2018-07-27T23:28:28.076Z,99.90
2018-07-27T23:31:01.344Z,99.90
2018-07-27T23:33:34.647Z,99.90
2018-07-27T23:36:08.776Z,99.90
2018-07-27T23:38:41.872Z,99.90
2018-07-27T23:41:15.827Z,99.90
2018-07-27T23:43:49.062Z,99.90
2018-07-27T23:46:22.990Z,99.90
2018-07-27T23:48:56.121Z,99.90
2018-07-27T23:51:29.567Z,99.90
2018-07-27T23:54:02.704Z,99.90
2018-07-27T23:56:35.928Z,99.90
2018-07-27T23:59:09.248Z,99.90
